createdAt,value
2019-01-18T00:00:03.362Z,3.11
2019-01-18T00:01:02.758Z,2.74
2019-01-18T00:02:03.559Z,2.49
2019-01-18T00:03:02.875Z,2.51
2019-01-18T00:04:02.952Z,2.51
2019-01-18T00:05:03.198Z,2.69
2019-01-18T00:06:03.008Z,3.45
2019-01-18T00:07:03.659Z,2.55
2019-01-18T00:08:03.267Z,2.55
2019-01-18T00:09:02.561Z,4.01
2019-01-18T00:10:01.695Z,5.54
2019-01-18T00:11:02.782Z,5.54
2019-01-18T00:12:02.283Z,2.98
2019-01-18T00:13:03.436Z,7.49
2019-01-18T00:14:02.870Z,7.49
2019-01-18T00:15:03.027Z,8.08
2019-01-18T00:16:03.141Z,5.02
2019-01-18T00:17:02.982Z,3.66
2019-01-18T00:18:03.628Z,3.66
2019-01-18T00:19:03.360Z,3.01
2019-01-18T00:20:02.875Z,3.01
2019-01-18T00:21:02.544Z,4.6
2019-01-18T00:22:03.358Z,4.6
2019-01-18T00:23:02.745Z,2.99
2019-01-18T00:24:03.434Z,2.99
2019-01-18T00:25:03.332Z,2.27
2019-01-18T00:26:03.287Z,2.98
2019-01-18T00:27:03.311Z,4.02
2019-01-18T00:28:02.978Z,4.02
2019-01-18T00:29:02.614Z,2.14
2019-01-18T00:30:02.203Z,2.23
2019-01-18T00:31:03.618Z,3.81
2019-01-18T00:32:03.281Z,3.81
2019-01-18T00:33:03.042Z,3.55
2019-01-18T00:34:01.835Z,2.26
2019-01-18T00:35:02.426Z,2.38
2019-01-18T00:36:02.858Z,2.38
2019-01-18T00:37:03.021Z,2.18
2019-01-18T00:38:03.433Z,3.15
2019-01-18T00:39:03.560Z,3.87
2019-01-18T00:40:03.383Z,3.87
2019-01-18T00:41:03.326Z,3.64
2019-01-18T00:42:03.549Z,3.64
2019-01-18T00:43:03.211Z,6.21
2019-01-18T00:44:03.078Z,6.21
2019-01-18T00:45:02.935Z,2.01
2019-01-18T00:46:02.657Z,2.01
2019-01-18T00:47:03.539Z,3.68
2019-01-18T00:48:02.819Z,2.06
2019-01-18T00:49:03.521Z,3.45
2019-01-18T00:50:02.805Z,3.45
2019-01-18T00:51:02.678Z,3.6
2019-01-18T00:52:03.272Z,3.6
2019-01-18T00:53:02.926Z,1.77
2019-01-18T00:54:02.915Z,2.21
2019-01-18T00:55:03.306Z,1.94
2019-01-18T00:56:03.027Z,1.94
2019-01-18T00:57:02.717Z,2.54
2019-01-18T00:58:03.085Z,2.37
2019-01-18T00:59:03.492Z,2.83
2019-01-18T01:00:03.368Z,2.83
2019-01-18T01:01:03.272Z,4.05
2019-01-18T01:02:02.926Z,4.05
2019-01-18T01:03:02.583Z,4.11
2019-01-18T01:04:03.553Z,3.16
2019-01-18T01:05:03.079Z,1.85
2019-01-18T01:06:03.622Z,1.85
2019-01-18T01:07:02.672Z,2.78
2019-01-18T01:08:02.699Z,1.95
2019-01-18T01:09:03.430Z,2.76
2019-01-18T01:10:02.294Z,2
2019-01-18T01:11:02.875Z,2.49
2019-01-18T01:12:01.852Z,2.04
2019-01-18T01:13:02.673Z,2.21
2019-01-18T01:14:03.063Z,3.85
2019-01-18T01:15:03.580Z,2.11
2019-01-18T01:16:02.628Z,3.85
2019-01-18T01:17:03.405Z,2.13
2019-01-18T01:18:02.968Z,2.27
2019-01-18T01:19:03.345Z,8.61
2019-01-18T01:20:03.042Z,8.61
2019-01-18T01:21:02.822Z,2.25
2019-01-18T01:22:03.482Z,2.83
2019-01-18T01:23:03.510Z,3.57
2019-01-18T01:24:03.259Z,3.57
2019-01-18T01:25:02.959Z,2.62
2019-01-18T01:26:02.819Z,2.62
2019-01-18T01:27:03.397Z,2.65
2019-01-18T01:28:02.859Z,3.16
2019-01-18T01:29:02.809Z,2.51
2019-01-18T01:30:03.483Z,2.51
2019-01-18T01:31:03.183Z,2.43
2019-01-18T01:32:02.047Z,1.94
2019-01-18T01:33:02.402Z,1.94
2019-01-18T01:34:03.070Z,2.01
2019-01-18T01:35:03.622Z,1.86
2019-01-18T01:36:03.376Z,1.86
2019-01-18T01:37:02.798Z,2.29
2019-01-18T01:38:03.598Z,2.29
2019-01-18T01:39:02.809Z,2.2
2019-01-18T01:40:03.044Z,2.2
2019-01-18T01:41:03.382Z,2.46
2019-01-18T01:42:02.704Z,1.58
2019-01-18T01:43:03.370Z,1.59
2019-01-18T01:44:02.690Z,1.76
2019-01-18T01:45:04.544Z,1.76
2019-01-18T01:46:03.306Z,2.29
2019-01-18T01:47:03.240Z,2.24
2019-01-18T01:48:02.940Z,2.24
2019-01-18T01:49:02.807Z,1.59
2019-01-18T01:50:03.642Z,1.55
2019-01-18T01:51:03.068Z,1.55
2019-01-18T01:52:02.961Z,2.18
2019-01-18T01:53:01.999Z,1.56
2019-01-18T01:54:03.461Z,1.76
2019-01-18T01:55:03.319Z,2.92
2019-01-18T01:56:03.148Z,1.91
2019-01-18T01:57:02.974Z,3.02
2019-01-18T01:58:03.459Z,3.02
2019-01-18T01:59:03.082Z,1.91
2019-01-18T02:00:02.762Z,1.54
2019-01-18T02:01:03.343Z,2.09
2019-01-18T02:02:02.822Z,2.09
2019-01-18T02:03:03.280Z,1.89
2019-01-18T02:04:02.542Z,3.55
2019-01-18T02:05:03.439Z,3.55
2019-01-18T02:06:02.880Z,3.78
2019-01-18T02:07:03.070Z,2.26
2019-01-18T02:08:03.242Z,1.89
2019-01-18T02:09:02.571Z,4.35
2019-01-18T02:10:03.040Z,4.35
2019-01-18T02:11:03.193Z,2.72
2019-01-18T02:12:03.511Z,2.82
2019-01-18T02:13:03.015Z,2.59
2019-01-18T02:14:03.657Z,2.66
2019-01-18T02:15:03.560Z,2.66
2019-01-18T02:16:02.956Z,2.7
2019-01-18T02:17:03.638Z,2.41
2019-01-18T02:18:03.559Z,1.75
2019-01-18T02:19:03.321Z,1.75
2019-01-18T02:20:03.145Z,3.46
2019-01-18T02:21:02.994Z,2.79
2019-01-18T02:22:03.142Z,1.52
2019-01-18T02:23:02.884Z,1.52
2019-01-18T02:24:03.059Z,2.48
2019-01-18T02:25:02.720Z,2.48
2019-01-18T02:26:03.300Z,2.15
2019-01-18T02:27:03.009Z,5.42
2019-01-18T02:28:03.664Z,2.68
2019-01-18T02:29:01.944Z,2.39
2019-01-18T02:30:02.675Z,2.39
2019-01-18T02:31:02.653Z,1.92
2019-01-18T02:32:03.194Z,2.62
2019-01-18T02:33:03.124Z,3.21
2019-01-18T02:34:02.818Z,1.82
2019-01-18T02:35:03.304Z,2.25
2019-01-18T02:36:03.402Z,2.19
2019-01-18T02:37:03.330Z,2.7
2019-01-18T02:38:02.617Z,1.81
2019-01-18T02:39:03.152Z,2.26
2019-01-18T02:40:03.033Z,2.26
2019-01-18T02:41:02.948Z,3.98
2019-01-18T02:42:04.820Z,3.98
2019-01-18T02:43:04.053Z,2.71
2019-01-18T02:44:03.352Z,2.37
2019-01-18T02:45:03.115Z,2.52
2019-01-18T02:46:03.159Z,2.52
2019-01-18T02:47:03.081Z,3.32
2019-01-18T02:48:03.061Z,2.68
2019-01-18T02:49:02.944Z,3.61
2019-01-18T02:50:03.653Z,3.61
2019-01-18T02:51:02.126Z,2.64
2019-01-18T02:52:03.334Z,3.1
2019-01-18T02:53:02.919Z,3.74
2019-01-18T02:54:02.907Z,3.74
2019-01-18T02:55:02.880Z,3.63
2019-01-18T02:56:03.068Z,5.49
2019-01-18T02:57:02.641Z,5.76
2019-01-18T02:58:03.420Z,3.46
2019-01-18T02:59:03.213Z,5.76
2019-01-18T03:00:04.845Z,5.76
2019-01-18T03:01:03.619Z,4.61
2019-01-18T03:02:03.316Z,4.61
2019-01-18T03:03:02.920Z,3.31
2019-01-18T03:04:02.758Z,4.89
2019-01-18T03:05:02.776Z,4.7
2019-01-18T03:06:03.018Z,3.38
2019-01-18T03:07:02.805Z,4.91
2019-01-18T03:08:03.402Z,4.91
2019-01-18T03:09:03.130Z,5.92
2019-01-18T03:10:02.737Z,5.92
2019-01-18T03:11:03.453Z,2.95
2019-01-18T03:12:03.172Z,5.29
2019-01-18T03:13:03.008Z,4.79
2019-01-18T03:14:02.892Z,3.98
2019-01-18T03:15:02.568Z,3.63
2019-01-18T03:16:03.315Z,3.63
2019-01-18T03:17:02.144Z,4.19
2019-01-18T03:18:02.856Z,4.19
2019-01-18T03:19:02.749Z,4.76
2019-01-18T03:20:01.944Z,5.84
2019-01-18T03:21:02.325Z,4.72
2019-01-18T03:22:02.697Z,5.81
2019-01-18T03:23:03.692Z,7.68
2019-01-18T03:24:03.314Z,7.68
2019-01-18T03:25:03.292Z,6.09
2019-01-18T03:26:03.451Z,12.67
2019-01-18T03:27:02.983Z,3.75
2019-01-18T03:28:03.087Z,3.75
2019-01-18T03:29:02.983Z,3.06
2019-01-18T03:30:03.153Z,4.86
2019-01-18T03:31:02.683Z,4.86
2019-01-18T03:32:03.380Z,4.65
2019-01-18T03:33:03.080Z,7.28
2019-01-18T03:34:02.497Z,7.28
2019-01-18T03:35:02.942Z,3.96
2019-01-18T03:36:02.685Z,4.24
2019-01-18T03:37:03.009Z,3.53
2019-01-18T03:38:02.790Z,3.53
2019-01-18T03:39:03.772Z,3.67
2019-01-18T03:40:03.098Z,4.95
2019-01-18T03:41:03.127Z,7.47
2019-01-18T03:42:03.058Z,5.24
2019-01-18T03:43:02.894Z,4.32
2019-01-18T03:44:02.887Z,6.27
2019-01-18T03:45:03.511Z,6.27
2019-01-18T03:46:03.303Z,4.09
2019-01-18T03:47:03.204Z,3.89
2019-01-18T03:48:03.226Z,6.16
2019-01-18T03:49:02.666Z,6.16
2019-01-18T03:50:03.378Z,4.26
2019-01-18T03:51:03.670Z,4.26
2019-01-18T03:52:03.276Z,5.65
2019-01-18T03:53:03.430Z,7.17
2019-01-18T03:54:03.111Z,9.48
2019-01-18T03:55:03.778Z,9.48
2019-01-18T03:56:02.902Z,3.82
2019-01-18T03:57:03.502Z,3.83
2019-01-18T03:58:03.053Z,3.83
2019-01-18T03:59:02.950Z,4.83
2019-01-18T04:00:02.967Z,4.51
2019-01-18T04:01:02.915Z,5.56
2019-01-18T04:02:01.844Z,5.35
2019-01-18T04:03:03.395Z,5.35
2019-01-18T04:04:02.195Z,8.04
2019-01-18T04:05:03.001Z,5.12
2019-01-18T04:06:03.571Z,4.87
2019-01-18T04:07:02.248Z,3.69
2019-01-18T04:08:03.508Z,3.69
2019-01-18T04:09:03.643Z,4.83
2019-01-18T04:10:03.381Z,5.49
2019-01-18T04:11:02.816Z,4.48
2019-01-18T04:12:03.493Z,4.64
2019-01-18T04:13:03.033Z,4.64
2019-01-18T04:14:03.571Z,5.36
2019-01-18T04:15:02.842Z,5.6
2019-01-18T04:16:02.566Z,9.7
2019-01-18T04:17:03.228Z,8.16
2019-01-18T04:18:02.837Z,8.37
2019-01-18T04:19:03.207Z,6.31
2019-01-18T04:20:02.833Z,6.31
2019-01-18T04:21:02.855Z,7.05
2019-01-18T04:22:02.738Z,5.75
2019-01-18T04:23:03.022Z,5.2
2019-01-18T04:24:03.514Z,5.2
2019-01-18T04:25:03.500Z,6.39
2019-01-18T04:26:03.210Z,6.39
2019-01-18T04:27:03.133Z,8.14
2019-01-18T04:28:02.890Z,7.45
2019-01-18T04:29:03.261Z,6.55
2019-01-18T04:30:03.427Z,6.55
2019-01-18T04:31:02.201Z,6.49
2019-01-18T04:32:02.075Z,8.42
2019-01-18T04:33:03.284Z,5.16
2019-01-18T04:34:01.886Z,8.38
2019-01-18T04:35:03.582Z,8.38
2019-01-18T04:36:03.131Z,6.32
2019-01-18T04:37:02.335Z,7.09
2019-01-18T04:38:02.732Z,7.09
2019-01-18T04:39:03.008Z,11.71
2019-01-18T04:40:02.860Z,11.71
2019-01-18T04:41:03.553Z,9.01
2019-01-18T04:42:03.192Z,4.94
2019-01-18T04:43:03.220Z,8.51
2019-01-18T04:44:03.213Z,6.53
2019-01-18T04:45:02.576Z,7.29
2019-01-18T04:46:02.956Z,8.33
2019-01-18T04:47:02.891Z,6.36
2019-01-18T04:48:02.835Z,6.36
2019-01-18T04:49:03.209Z,6.84
2019-01-18T04:50:02.974Z,6.84
2019-01-18T04:51:02.752Z,11.58
2019-01-18T04:52:03.453Z,16.69
2019-01-18T04:53:03.483Z,7.33
2019-01-18T04:54:02.760Z,7.33
2019-01-18T04:55:03.521Z,6.77
2019-01-18T04:56:02.180Z,9.61
2019-01-18T04:57:03.511Z,13.66
2019-01-18T04:58:03.490Z,6.31
2019-01-18T04:59:03.127Z,11.98
2019-01-18T05:00:03.411Z,6.14
2019-01-18T05:01:03.305Z,8.38
2019-01-18T05:02:03.607Z,8.44
2019-01-18T05:03:02.925Z,7.53
2019-01-18T05:04:02.867Z,7.98
2019-01-18T05:05:03.114Z,11.15
2019-01-18T05:06:03.093Z,11.02
2019-01-18T05:07:02.840Z,15.44
2019-01-18T05:08:03.158Z,9.27
2019-01-18T05:09:03.146Z,8.32
2019-01-18T05:10:03.681Z,8.35
2019-01-18T05:11:03.258Z,7.71
2019-01-18T05:12:03.316Z,7.71
2019-01-18T05:13:02.921Z,10.35
2019-01-18T05:14:02.944Z,10.35
2019-01-18T05:15:03.679Z,7.96
2019-01-18T05:16:03.394Z,7.96
2019-01-18T05:17:02.681Z,10.61
2019-01-18T05:18:02.635Z,10.61
2019-01-18T05:19:03.461Z,8.45
2019-01-18T05:20:03.158Z,10.68
2019-01-18T05:21:03.370Z,11.97
2019-01-18T05:22:02.898Z,11.85
2019-01-18T05:23:02.752Z,9.57
2019-01-18T05:24:02.645Z,9.04
2019-01-18T05:25:04.136Z,9.04
2019-01-18T05:26:02.582Z,9.04
2019-01-18T05:27:02.768Z,9.36
2019-01-18T05:28:03.002Z,7.07
2019-01-18T05:29:03.126Z,11.06
2019-01-18T05:30:03.272Z,11.06
2019-01-18T05:31:01.949Z,9.36
2019-01-18T05:32:01.635Z,11.12
2019-01-18T05:33:03.441Z,10.95
2019-01-18T05:34:03.476Z,10.86
2019-01-18T05:35:03.735Z,9.69
2019-01-18T05:36:03.650Z,7.46
2019-01-18T05:37:03.252Z,8.23
2019-01-18T05:38:03.101Z,15.59
2019-01-18T05:39:03.056Z,10.69
2019-01-18T05:40:03.032Z,10.69
2019-01-18T05:41:02.866Z,9.52
2019-01-18T05:42:03.311Z,7.61
2019-01-18T05:43:02.978Z,7.61
2019-01-18T05:44:03.606Z,7.81
2019-01-18T05:45:02.884Z,8.32
2019-01-18T05:46:03.014Z,8.61
2019-01-18T05:47:02.618Z,8.61
2019-01-18T05:48:02.825Z,8.45
2019-01-18T05:49:03.348Z,9.64
2019-01-18T05:50:02.890Z,9.64
2019-01-18T05:51:02.619Z,8.72
2019-01-18T05:52:02.652Z,8.44
2019-01-18T05:53:03.627Z,8.44
2019-01-18T05:54:03.565Z,11.45
2019-01-18T05:55:03.439Z,11.45
2019-01-18T05:56:03.120Z,7.72
2019-01-18T05:57:03.009Z,8.19
2019-01-18T05:58:03.022Z,11
2019-01-18T05:59:02.767Z,11
2019-01-18T06:00:03.533Z,10.31
2019-01-18T06:01:02.888Z,7.58
2019-01-18T06:02:02.792Z,7.58
2019-01-18T06:03:02.938Z,7.5
2019-01-18T06:04:02.911Z,9.09
2019-01-18T06:05:02.280Z,11.33
2019-01-18T06:06:02.912Z,9.43
2019-01-18T06:07:02.483Z,9.57
2019-01-18T06:08:03.404Z,12.24
2019-01-18T06:09:02.760Z,9.14
2019-01-18T06:10:03.365Z,10.48
2019-01-18T06:11:02.873Z,12.26
2019-01-18T06:12:02.962Z,20.49
2019-01-18T06:13:03.623Z,14.62
2019-01-18T06:14:03.141Z,14.62
2019-01-18T06:15:03.467Z,13.72
2019-01-18T06:16:03.344Z,13.72
2019-01-18T06:17:02.753Z,13.72
2019-01-18T06:18:03.188Z,13.42
2019-01-18T06:19:03.437Z,7.98
2019-01-18T06:20:03.614Z,11.29
2019-01-18T06:21:02.637Z,11.29
2019-01-18T06:22:02.913Z,10.34
2019-01-18T06:23:03.004Z,9.56
2019-01-18T06:24:02.864Z,9.56
2019-01-18T06:25:02.956Z,11.14
2019-01-18T06:26:03.025Z,11.14
2019-01-18T06:27:02.982Z,10.59
2019-01-18T06:28:03.411Z,10.59
2019-01-18T06:29:02.677Z,12.44
2019-01-18T06:30:03.271Z,12.44
2019-01-18T06:31:02.940Z,11.78
2019-01-18T06:32:03.460Z,11.11
2019-01-18T06:33:02.621Z,14.52
2019-01-18T06:34:03.246Z,8.64
2019-01-18T06:35:02.940Z,9.22
2019-01-18T06:36:03.082Z,10.02
2019-01-18T06:37:03.437Z,11.84
2019-01-18T06:38:03.257Z,11.84
2019-01-18T06:39:03.044Z,8.14
2019-01-18T06:40:02.732Z,8.49
2019-01-18T06:41:02.806Z,10.09
2019-01-18T06:42:03.303Z,10.09
2019-01-18T06:43:02.714Z,13.39
2019-01-18T06:44:03.102Z,13.39
2019-01-18T06:45:02.969Z,13
2019-01-18T06:46:03.709Z,9.78
2019-01-18T06:47:03.313Z,10.21
2019-01-18T06:48:03.055Z,10.21
2019-01-18T06:49:03.645Z,9.85
2019-01-18T06:50:03.152Z,8.51
2019-01-18T06:51:02.762Z,7.01
2019-01-18T06:52:02.682Z,7.28
2019-01-18T06:53:02.815Z,8.92
2019-01-18T06:54:02.147Z,9.48
2019-01-18T06:55:03.315Z,8.14
2019-01-18T06:56:02.756Z,9.16
2019-01-18T06:57:02.869Z,13.08
2019-01-18T06:58:02.702Z,6.78
2019-01-18T06:59:01.835Z,10.81
2019-01-18T07:00:03.050Z,7.66
2019-01-18T07:01:08.424Z,7.55
2019-01-18T07:02:03.390Z,8.91
2019-01-18T07:03:03.001Z,7.49
2019-01-18T07:04:02.765Z,7.49
2019-01-18T07:05:03.548Z,12.62
2019-01-18T07:06:03.098Z,12.62
2019-01-18T07:07:03.428Z,13.44
2019-01-18T07:08:03.038Z,11.01
2019-01-18T07:09:02.991Z,11.01
2019-01-18T07:10:03.626Z,11.01
2019-01-18T07:11:03.357Z,12.42
2019-01-18T07:12:02.973Z,12.42
2019-01-18T07:13:02.693Z,13.95
2019-01-18T07:14:03.036Z,10.16
2019-01-18T07:15:03.002Z,11.19
2019-01-18T07:16:02.995Z,10.19
2019-01-18T07:17:02.541Z,10.76
2019-01-18T07:18:03.164Z,15.47
2019-01-18T07:19:02.230Z,15.14
2019-01-18T07:20:03.283Z,14.51
2019-01-18T07:21:02.940Z,13.17
2019-01-18T07:22:03.461Z,10.44
2019-01-18T07:23:02.944Z,10.44
2019-01-18T07:24:03.079Z,10.29
2019-01-18T07:25:02.708Z,12.23
2019-01-18T07:26:03.025Z,13.19
2019-01-18T07:27:03.249Z,13.19
2019-01-18T07:28:02.756Z,14.14
2019-01-18T07:29:03.491Z,11.22
2019-01-18T07:30:03.032Z,11.94
2019-01-18T07:31:03.043Z,11.94
2019-01-18T07:32:03.537Z,13.7
2019-01-18T07:33:03.486Z,13.12
2019-01-18T07:34:03.154Z,11.01
2019-01-18T07:35:03.103Z,11.01
2019-01-18T07:36:03.099Z,13.16
2019-01-18T07:37:02.676Z,13.16
2019-01-18T07:38:02.763Z,17.52
2019-01-18T07:39:03.435Z,12.99
2019-01-18T07:40:03.021Z,14.74
2019-01-18T07:41:02.611Z,14.74
2019-01-18T07:42:03.071Z,13.17
2019-01-18T07:43:01.879Z,10.66
2019-01-18T07:44:01.881Z,10.74
2019-01-18T07:45:02.939Z,9.72
2019-01-18T07:46:02.916Z,11.48
2019-01-18T07:47:03.319Z,13.68
2019-01-18T07:48:03.913Z,12.78
2019-01-18T07:49:02.008Z,16.19
2019-01-18T07:50:03.636Z,13.48
2019-01-18T07:51:02.772Z,13.48
2019-01-18T07:52:03.524Z,16.04
2019-01-18T07:53:03.067Z,16.04
2019-01-18T07:54:03.316Z,10.91
2019-01-18T07:55:03.438Z,10.91
2019-01-18T07:56:03.050Z,13.49
2019-01-18T07:57:03.641Z,13.49
2019-01-18T07:58:03.141Z,8.82
2019-01-18T07:59:02.731Z,14.54
2019-01-18T08:00:03.049Z,10.56
2019-01-18T08:01:02.815Z,10.56
2019-01-18T08:02:03.208Z,9.74
2019-01-18T08:03:03.006Z,9.74
2019-01-18T08:04:03.181Z,10.19
2019-01-18T08:05:02.891Z,12.99
2019-01-18T08:06:03.189Z,13.22
2019-01-18T08:07:03.329Z,9.38
2019-01-18T08:08:03.250Z,11.52
2019-01-18T08:09:03.569Z,11.52
2019-01-18T08:10:03.391Z,10.02
2019-01-18T08:11:03.275Z,14.18
2019-01-18T08:12:03.157Z,14.18
2019-01-18T08:13:03.560Z,15.37
2019-01-18T08:14:03.254Z,8.79
2019-01-18T08:15:03.007Z,8.79
2019-01-18T08:16:03.041Z,7.96
2019-01-18T08:17:02.821Z,7.96
2019-01-18T08:18:03.101Z,9.24
2019-01-18T08:19:02.814Z,9.24
2019-01-18T08:20:03.230Z,8.16
2019-01-18T08:21:02.990Z,8.16
2019-01-18T08:22:02.727Z,11.92
2019-01-18T08:23:03.465Z,14.7
2019-01-18T08:24:03.073Z,11.85
2019-01-18T08:25:03.766Z,11.85
2019-01-18T08:26:03.412Z,13.01
2019-01-18T08:27:02.847Z,9.47
2019-01-18T08:28:03.315Z,11.03
2019-01-18T08:29:03.302Z,11.03
2019-01-18T08:30:03.493Z,7.98
2019-01-18T08:31:02.770Z,12.68
2019-01-18T08:32:01.641Z,10.2
2019-01-18T08:33:03.312Z,10.2
2019-01-18T08:34:02.766Z,10.15
2019-01-18T08:35:02.324Z,11.31
2019-01-18T08:36:03.501Z,11.54
2019-01-18T08:37:03.349Z,7.89
2019-01-18T08:38:03.256Z,18.59
2019-01-18T08:39:02.924Z,18.59
2019-01-18T08:40:03.048Z,10.43
2019-01-18T08:41:02.686Z,10.43
2019-01-18T08:42:03.356Z,12.05
2019-01-18T08:43:03.562Z,12.05
2019-01-18T08:44:03.210Z,13.18
2019-01-18T08:45:03.074Z,12.88
2019-01-18T08:46:02.841Z,12.88
2019-01-18T08:47:02.767Z,13.85
2019-01-18T08:48:02.570Z,8.98
2019-01-18T08:49:03.100Z,8.19
2019-01-18T08:50:03.351Z,12.98
2019-01-18T08:51:03.881Z,11.61
2019-01-18T08:52:03.306Z,11.61
2019-01-18T08:53:02.861Z,8.56
2019-01-18T08:54:02.782Z,18.29
2019-01-18T08:55:02.778Z,11.45
2019-01-18T08:56:03.084Z,10.94
2019-01-18T08:57:02.705Z,10.94
2019-01-18T08:58:02.860Z,15.37
2019-01-18T08:59:02.727Z,11.95
2019-01-18T09:00:02.916Z,10.45
2019-01-18T09:01:02.741Z,10.45
2019-01-18T09:02:03.141Z,8.72
2019-01-18T09:03:03.453Z,10.19
2019-01-18T09:04:02.149Z,10.99
2019-01-18T09:05:02.525Z,8.97
2019-01-18T09:06:03.602Z,12.6
2019-01-18T09:07:03.265Z,11.41
2019-01-18T09:08:03.296Z,10.43
2019-01-18T09:09:03.004Z,10.43
2019-01-18T09:10:03.246Z,14.09
2019-01-18T09:11:03.046Z,9.98
2019-01-18T09:12:03.167Z,7.96
2019-01-18T09:13:02.751Z,8.24
2019-01-18T09:14:02.812Z,10.35
2019-01-18T09:15:02.681Z,10.35
2019-01-18T09:16:03.594Z,9.26
2019-01-18T09:17:03.249Z,9.26
2019-01-18T09:18:02.693Z,10.71
2019-01-18T09:19:03.263Z,11.53
2019-01-18T09:20:03.607Z,12.18
2019-01-18T09:21:03.431Z,12.18
2019-01-18T09:22:03.526Z,11.74
2019-01-18T09:23:02.967Z,11.99
2019-01-18T09:24:02.994Z,10.33
2019-01-18T09:25:02.837Z,9.36
2019-01-18T09:26:03.139Z,6.04
2019-01-18T09:27:02.795Z,9.97
2019-01-18T09:28:03.385Z,9.97
2019-01-18T09:29:03.574Z,16.52
2019-01-18T09:30:02.876Z,14.91
2019-01-18T09:31:03.587Z,14.91
2019-01-18T09:32:03.300Z,10.89
2019-01-18T09:33:03.044Z,6.68
2019-01-18T09:34:03.305Z,6.58
2019-01-18T09:35:03.245Z,6.58
2019-01-18T09:36:03.287Z,12.21
2019-01-18T09:37:03.167Z,12.21
2019-01-18T09:38:02.564Z,10.24
2019-01-18T09:39:02.990Z,9.14
2019-01-18T09:40:03.519Z,9.12
2019-01-18T09:41:03.156Z,9.12
2019-01-18T09:42:03.563Z,13.04
2019-01-18T09:43:03.375Z,13.04
2019-01-18T09:44:02.897Z,9.18
2019-01-18T09:45:03.015Z,9.18
2019-01-18T09:46:02.789Z,7.61
2019-01-18T09:47:03.309Z,7.61
2019-01-18T09:48:03.283Z,8.45
2019-01-18T09:49:03.251Z,8.45
2019-01-18T09:50:02.929Z,12.02
2019-01-18T09:51:02.711Z,12.02
2019-01-18T09:52:02.908Z,12.04
2019-01-18T09:53:03.456Z,11.65
2019-01-18T09:54:02.669Z,9.39
2019-01-18T09:55:03.586Z,9.39
2019-01-18T09:56:02.854Z,8.29
2019-01-18T09:57:01.750Z,9.29
2019-01-18T09:58:03.475Z,6.15
2019-01-18T09:59:03.403Z,6.15
2019-01-18T10:00:02.814Z,6.99
2019-01-18T10:01:03.174Z,8.11
2019-01-18T10:02:02.890Z,8.11
2019-01-18T10:03:02.658Z,7.54
2019-01-18T10:04:03.181Z,8.78
2019-01-18T10:05:03.019Z,8.78
2019-01-18T10:06:02.767Z,9.52
2019-01-18T10:07:03.469Z,8.42
2019-01-18T10:08:03.218Z,6.81
2019-01-18T10:09:02.829Z,6.52
2019-01-18T10:10:03.635Z,7.35
2019-01-18T10:11:03.159Z,7.35
2019-01-18T10:12:03.147Z,5.97
2019-01-18T10:13:03.252Z,5.97
2019-01-18T10:14:02.899Z,11.42
2019-01-18T10:15:03.662Z,10.32
2019-01-18T10:16:03.318Z,10.32
2019-01-18T10:17:03.526Z,10.81
2019-01-18T10:18:03.130Z,7.79
2019-01-18T10:19:02.833Z,7.79
2019-01-18T10:20:01.957Z,7.48
2019-01-18T10:21:02.861Z,7.48
2019-01-18T10:22:03.482Z,7.48
2019-01-18T10:23:03.072Z,10.11
2019-01-18T10:24:02.672Z,10.11
2019-01-18T10:25:02.919Z,7.81
2019-01-18T10:26:02.786Z,7.81
2019-01-18T10:27:03.510Z,5.85
2019-01-18T10:28:03.017Z,6.93
2019-01-18T10:29:03.014Z,8.22
2019-01-18T10:30:02.872Z,8.22
2019-01-18T10:31:03.301Z,7.22
2019-01-18T10:32:02.745Z,10.18
2019-01-18T10:33:03.339Z,7.33
2019-01-18T10:34:03.346Z,5.26
2019-01-18T10:35:02.967Z,7.05
2019-01-18T10:36:02.759Z,7.05
2019-01-18T10:37:03.617Z,8.83
2019-01-18T10:38:03.232Z,8.18
2019-01-18T10:39:03.692Z,8.49
2019-01-18T10:40:03.281Z,8.49
2019-01-18T10:41:02.631Z,12.48
2019-01-18T10:42:02.727Z,8.81
2019-01-18T10:43:02.913Z,8.05
2019-01-18T10:44:05.993Z,8.05
2019-01-18T10:45:03.395Z,12.01
2019-01-18T10:46:03.558Z,16.84
2019-01-18T10:47:03.161Z,16.84
2019-01-18T10:48:03.602Z,9.86
2019-01-18T10:49:03.284Z,9.86
2019-01-18T10:50:03.643Z,9.65
2019-01-18T10:51:03.343Z,9.65
2019-01-18T10:52:02.805Z,13.25
2019-01-18T10:53:02.718Z,13.25
2019-01-18T10:54:03.506Z,9.36
2019-01-18T10:55:03.483Z,7.64
2019-01-18T10:56:02.479Z,12.46
2019-01-18T10:57:02.545Z,8
2019-01-18T10:58:02.156Z,8.2
2019-01-18T10:59:02.392Z,11.35
2019-01-18T11:00:03.345Z,7.78
2019-01-18T11:01:03.177Z,7.78
2019-01-18T11:02:07.142Z,8.22
2019-01-18T11:03:03.255Z,10.53
2019-01-18T11:04:02.713Z,6.42
2019-01-18T11:05:02.661Z,6.42
2019-01-18T11:06:02.709Z,6.52
2019-01-18T11:07:02.899Z,6.41
2019-01-18T11:08:02.839Z,6.48
2019-01-18T11:09:03.541Z,6.48
2019-01-18T11:10:03.028Z,8.5
2019-01-18T11:11:02.969Z,8.5
2019-01-18T11:12:02.670Z,10.64
2019-01-18T11:13:03.337Z,10.64
2019-01-18T11:14:02.776Z,5.74
2019-01-18T11:15:03.433Z,5.74
2019-01-18T11:16:02.797Z,6.91
2019-01-18T11:17:03.691Z,6.91
2019-01-18T11:18:03.513Z,6.44
2019-01-18T11:19:03.203Z,10.84
2019-01-18T11:20:03.217Z,9.15
2019-01-18T11:21:02.816Z,9.15
2019-01-18T11:22:03.316Z,6.14
2019-01-18T11:23:02.270Z,8.24
2019-01-18T11:24:02.881Z,6.54
2019-01-18T11:25:02.875Z,6.54
2019-01-18T11:26:03.337Z,7.13
2019-01-18T11:27:03.260Z,8.5
2019-01-18T11:28:02.963Z,8.12
2019-01-18T11:29:03.568Z,8.12
2019-01-18T11:30:02.908Z,8.27
2019-01-18T11:31:02.851Z,7.05
2019-01-18T11:32:03.155Z,7.05
2019-01-18T11:33:03.463Z,7.84
2019-01-18T11:34:02.844Z,15.24
2019-01-18T11:35:03.703Z,15.24
2019-01-18T11:36:03.430Z,7.27
2019-01-18T11:37:03.624Z,6.68
2019-01-18T11:38:02.749Z,8.35
2019-01-18T11:39:03.368Z,8.35
2019-01-18T11:40:03.346Z,4.86
2019-01-18T11:41:03.078Z,9.89
2019-01-18T11:42:05.269Z,6.24
2019-01-18T11:43:02.877Z,6.21
2019-01-18T11:44:03.358Z,6.24
2019-01-18T11:45:02.030Z,6.36
2019-01-18T11:46:03.233Z,11.58
2019-01-18T11:47:02.771Z,12.55
2019-01-18T11:48:03.420Z,11.22
2019-01-18T11:49:03.032Z,11.22
2019-01-18T11:50:03.412Z,5.21
2019-01-18T11:51:03.502Z,7.69
2019-01-18T11:52:02.736Z,8.91
2019-01-18T11:53:02.871Z,8.91
2019-01-18T11:54:03.492Z,6.61
2019-01-18T11:55:03.011Z,5.44
2019-01-18T11:56:02.786Z,10.34
2019-01-18T11:57:03.489Z,10.34
2019-01-18T11:58:02.718Z,8.32
2019-01-18T11:59:02.879Z,8.32
2019-01-18T12:00:03.054Z,5.53
2019-01-18T12:01:03.304Z,6.88
2019-01-18T12:02:02.723Z,7.06
2019-01-18T12:03:03.535Z,7.06
2019-01-18T12:04:03.001Z,9.2
2019-01-18T12:05:02.693Z,10.25
2019-01-18T12:06:02.894Z,10.31
2019-01-18T12:07:03.019Z,10.31
2019-01-18T12:08:02.708Z,9.75
2019-01-18T12:09:02.834Z,6.8
2019-01-18T12:10:03.473Z,5.45
2019-01-18T12:11:03.383Z,5.45
2019-01-18T12:12:02.750Z,3.23
2019-01-18T12:13:02.715Z,3.84
2019-01-18T12:14:03.213Z,4.72
2019-01-18T12:15:01.863Z,3.42
2019-01-18T12:16:04.063Z,6.34
2019-01-18T12:17:03.308Z,6.34
2019-01-18T12:18:03.373Z,8.92
2019-01-18T12:19:02.679Z,4.42
2019-01-18T12:20:02.794Z,10.16
2019-01-18T12:21:02.783Z,10.16
2019-01-18T12:22:02.777Z,6.79
2019-01-18T12:23:02.751Z,11.72
2019-01-18T12:24:03.556Z,3.57
2019-01-18T12:25:03.370Z,3.57
2019-01-18T12:26:03.592Z,3.91
2019-01-18T12:27:03.478Z,3.91
2019-01-18T12:28:02.907Z,3.51
2019-01-18T12:29:03.208Z,9.72
2019-01-18T12:30:03.697Z,5.48
2019-01-18T12:31:02.920Z,5.48
2019-01-18T12:32:03.280Z,7.68
2019-01-18T12:33:02.774Z,7.68
2019-01-18T12:34:02.866Z,4.68
2019-01-18T12:35:03.256Z,4.68
2019-01-18T12:36:03.297Z,4.22
2019-01-18T12:37:03.618Z,7.98
2019-01-18T12:38:03.322Z,5.12
2019-01-18T12:39:03.557Z,6.44
2019-01-18T12:40:03.167Z,12
2019-01-18T12:41:02.882Z,9.5
2019-01-18T12:42:02.150Z,4.94
2019-01-18T12:43:02.112Z,6.15
2019-01-18T12:44:02.566Z,6.15
2019-01-18T12:45:02.347Z,9.32
2019-01-18T12:46:03.371Z,10.01
2019-01-18T12:47:02.287Z,17.24
2019-01-18T12:48:03.650Z,9.61
2019-01-18T12:49:03.066Z,9.61
2019-01-18T12:50:02.615Z,9.61
2019-01-18T12:51:03.472Z,7.57
2019-01-18T12:52:03.394Z,6.54
2019-01-18T12:53:02.630Z,6.54
2019-01-18T12:54:03.228Z,4.96
2019-01-18T12:55:03.217Z,4.96
2019-01-18T12:56:02.849Z,5.14
2019-01-18T12:57:03.575Z,5.14
2019-01-18T12:58:03.201Z,12.29
2019-01-18T12:59:03.135Z,12.29
2019-01-18T13:00:02.800Z,8.66
2019-01-18T13:01:03.576Z,8.66
2019-01-18T13:02:02.950Z,8.84
2019-01-18T13:03:02.767Z,8.84
2019-01-18T13:04:02.991Z,7.69
2019-01-18T13:05:03.882Z,7.69
2019-01-18T13:06:03.154Z,9.76
2019-01-18T13:07:02.047Z,10.55
2019-01-18T13:08:02.737Z,7.52
2019-01-18T13:09:03.240Z,7.52
2019-01-18T13:10:01.762Z,10.01
2019-01-18T13:11:03.551Z,10.01
2019-01-18T13:12:02.998Z,10.54